createdAt,value
2019-02-24T00:00:50.019Z,44.40
2019-02-24T00:03:23.845Z,44.35
2019-02-24T00:05:55.702Z,44.39
2019-02-24T00:08:28.276Z,44.80
2019-02-24T00:11:00.067Z,44.31
2019-02-24T00:13:32.208Z,44.38
2019-02-24T00:16:04.255Z,44.84
2019-02-24T00:18:36.637Z,44.92
2019-02-24T00:21:08.762Z,44.22
2019-02-24T00:23:40.669Z,44.93
2019-02-24T00:26:12.448Z,45.22
2019-02-24T00:28:44.462Z,45.18
2019-02-24T00:31:16.367Z,45.35
2019-02-24T00:33:48.408Z,45.41
2019-02-24T00:36:20.748Z,45.60
2019-02-24T00:38:52.750Z,45.67
2019-02-24T00:41:24.528Z,45.26
2019-02-24T00:43:56.575Z,45.41
2019-02-24T00:46:28.409Z,45.61
2019-02-24T00:49:00.395Z,45.83
2019-02-24T00:51:32.460Z,45.95
2019-02-24T00:54:04.641Z,46.00
2019-02-24T00:56:36.422Z,46.02
2019-02-24T00:59:08.326Z,46.22
2019-02-24T01:01:41.077Z,46.24
2019-02-24T01:04:13.218Z,46.75
2019-02-24T01:06:45.090Z,46.48
2019-02-24T01:09:17.340Z,46.32
2019-02-24T01:11:49.104Z,46.54
2019-02-24T01:14:22.135Z,46.82
2019-02-24T01:16:54.098Z,46.50
2019-02-24T01:19:25.981Z,46.38
2019-02-24T01:21:57.916Z,46.18
2019-02-24T01:24:30.150Z,46.54
2019-02-24T01:27:01.919Z,46.35
2019-02-24T01:29:33.964Z,46.26
2019-02-24T01:32:05.778Z,46.60
2019-02-24T01:34:37.636Z,46.61
2019-02-24T01:37:09.750Z,46.30
2019-02-24T01:39:41.574Z,46.11
2019-02-24T01:42:13.375Z,46.08
2019-02-24T01:44:45.347Z,45.81
2019-02-24T01:47:17.142Z,45.92
2019-02-24T01:49:49.182Z,45.67
2019-02-24T01:52:20.960Z,45.50
2019-02-24T01:54:52.843Z,45.46
2019-02-24T01:57:24.637Z,45.21
2019-02-24T01:59:56.708Z,45.62
2019-02-24T02:02:28.548Z,45.40
2019-02-24T02:05:00.552Z,45.91
2019-02-24T02:07:32.412Z,45.77
2019-02-24T02:10:04.466Z,45.23
2019-02-24T02:12:36.349Z,45.38
2019-02-24T02:15:08.587Z,45.36
2019-02-24T02:17:40.516Z,45.37
2019-02-24T02:20:12.834Z,45.51
2019-02-24T02:22:45.349Z,45.88
2019-02-24T02:25:17.247Z,46.22
2019-02-24T02:27:49.004Z,46.08
2019-02-24T02:30:21.100Z,45.66
2019-02-24T02:32:52.871Z,45.63
2019-02-24T02:35:24.890Z,45.57
2019-02-24T02:37:57.037Z,45.73
2019-02-24T02:40:29.794Z,46.25
2019-02-24T02:43:01.663Z,46.25
2019-02-24T02:45:33.798Z,46.45
2019-02-24T02:48:05.576Z,46.10
2019-02-24T02:50:37.585Z,45.99
2019-02-24T02:53:09.640Z,46.00
2019-02-24T02:55:41.526Z,46.17
2019-02-24T02:58:13.288Z,46.69
2019-02-24T03:00:45.194Z,46.39
2019-02-24T03:03:17.003Z,46.52
2019-02-24T03:05:58.611Z,46.75
2019-02-24T03:08:50.207Z,46.76
2019-02-24T03:11:22.314Z,47.09
2019-02-24T03:13:54.117Z,47.13
2019-02-24T03:16:28.772Z,47.01
2019-02-24T03:19:00.541Z,47.07
2019-02-24T03:21:32.462Z,46.70
2019-02-24T03:24:04.274Z,46.81
2019-02-24T03:26:36.129Z,46.62
2019-02-24T03:29:07.937Z,46.65
2019-02-24T03:31:39.795Z,46.93
2019-02-24T03:34:11.549Z,47.04
2019-02-24T03:36:43.409Z,47.35
2019-02-24T03:39:15.524Z,47.52
2019-02-24T03:41:47.405Z,47.28
2019-02-24T03:44:19.160Z,47.37
2019-02-24T03:46:51.027Z,47.56
2019-02-24T03:49:22.807Z,47.53
2019-02-24T03:51:54.859Z,47.90
2019-02-24T03:54:26.973Z,47.42
2019-02-24T03:56:58.813Z,47.52
2019-02-24T03:59:30.622Z,47.56
2019-02-24T04:02:02.403Z,47.84
2019-02-24T04:04:35.433Z,47.55
2019-02-24T04:07:07.276Z,48.09
2019-02-24T04:09:39.523Z,47.99
2019-02-24T04:12:11.588Z,47.82
2019-02-24T04:14:43.438Z,47.57
2019-02-24T04:17:15.260Z,47.33
2019-02-24T04:19:47.047Z,47.40
2019-02-24T04:22:19.141Z,47.41
2019-02-24T04:24:51.242Z,47.29
2019-02-24T04:27:23.397Z,47.64
2019-02-24T04:29:55.343Z,47.81
2019-02-24T04:32:27.508Z,47.18
2019-02-24T04:34:59.263Z,47.44
2019-02-24T04:37:31.234Z,47.28
2019-02-24T04:40:03.335Z,47.13
2019-02-24T04:42:35.469Z,47.34
2019-02-24T04:45:07.275Z,47.15
2019-02-24T04:47:39.290Z,46.89
2019-02-24T04:50:11.070Z,47.23
2019-02-24T04:52:42.943Z,47.24
2019-02-24T04:55:15.081Z,46.91
2019-02-24T04:57:47.143Z,46.94
2019-02-24T05:00:18.941Z,47.12
2019-02-24T05:02:50.806Z,47.31
2019-02-24T05:05:22.631Z,47.25
2019-02-24T05:07:54.704Z,47.35
2019-02-24T05:10:26.720Z,47.22
2019-02-24T05:12:58.837Z,47.25
2019-02-24T05:15:30.607Z,46.98
2019-02-24T05:18:02.482Z,47.18
2019-02-24T05:20:34.255Z,47.23
2019-02-24T05:23:06.112Z,46.97
2019-02-24T05:25:38.133Z,47.26
2019-02-24T05:28:10.025Z,47.33
2019-02-24T05:30:42.055Z,47.07
2019-02-24T05:33:13.923Z,47.23
2019-02-24T05:35:45.721Z,47.06
2019-02-24T05:38:17.869Z,47.11
2019-02-24T05:40:49.993Z,47.25
2019-02-24T05:43:22.078Z,47.10
2019-02-24T05:45:53.864Z,47.01
2019-02-24T05:48:25.906Z,46.88
2019-02-24T05:50:57.743Z,46.87
2019-02-24T05:53:29.504Z,46.78
2019-02-24T05:56:01.560Z,46.78
2019-02-24T05:58:33.664Z,47.03
2019-02-24T06:01:05.418Z,46.68
2019-02-24T06:03:37.374Z,46.56
2019-02-24T06:06:09.163Z,46.87
2019-02-24T06:08:41.030Z,46.81
2019-02-24T06:11:13.131Z,46.67
2019-02-24T06:13:45.069Z,46.67
2019-02-24T06:16:16.844Z,46.64
2019-02-24T06:18:48.815Z,46.79
2019-02-24T06:21:20.676Z,46.71
2019-02-24T06:23:52.685Z,46.81
2019-02-24T06:26:24.769Z,46.93
2019-02-24T06:28:56.658Z,46.94
2019-02-24T06:31:28.471Z,46.83
2019-02-24T06:34:00.845Z,47.24
2019-02-24T06:36:32.618Z,47.09
2019-02-24T06:39:05.404Z,47.02
2019-02-24T06:41:37.423Z,47.15
2019-02-24T06:44:09.515Z,47.26
2019-02-24T06:46:41.329Z,47.28
2019-02-24T06:49:14.473Z,47.60
2019-02-24T06:51:46.321Z,47.70
2019-02-24T06:54:19.521Z,47.74
2019-02-24T06:56:51.524Z,48.11
2019-02-24T06:59:23.567Z,47.58
2019-02-24T07:01:55.373Z,47.85
2019-02-24T07:04:27.143Z,48.31
2019-02-24T07:06:58.924Z,48.40
2019-02-24T07:09:30.994Z,48.25
2019-02-24T07:12:03.307Z,48.36
2019-02-24T07:14:36.367Z,48.75
2019-02-24T07:17:08.202Z,48.50
2019-02-24T07:19:40.096Z,48.76
2019-02-24T07:22:11.895Z,48.78
2019-02-24T07:24:45.140Z,48.45
2019-02-24T07:27:16.892Z,48.24
2019-02-24T07:29:48.784Z,48.53
2019-02-24T07:32:20.573Z,48.78
2019-02-24T07:34:52.569Z,48.86
2019-02-24T07:37:24.418Z,48.93
2019-02-24T07:39:56.285Z,48.89
2019-02-24T07:42:28.303Z,49.19
2019-02-24T07:45:00.530Z,48.81
2019-02-24T07:47:32.306Z,48.43
2019-02-24T07:50:04.284Z,48.59
2019-02-24T07:52:36.089Z,48.77
2019-02-24T07:55:08.194Z,49.00
2019-02-24T07:57:40.728Z,48.83
2019-02-24T08:00:12.933Z,48.86
2019-02-24T08:02:44.755Z,49.00
2019-02-24T08:05:16.626Z,49.26
2019-02-24T08:07:48.416Z,49.22
2019-02-24T08:10:20.518Z,48.64
2019-02-24T08:12:52.448Z,48.90
2019-02-24T08:15:24.636Z,48.58
2019-02-24T08:17:56.514Z,48.74
2019-02-24T08:20:28.432Z,48.45
2019-02-24T08:23:00.254Z,48.32
2019-02-24T08:25:33.416Z,48.45
2019-02-24T08:28:05.540Z,48.47
2019-02-24T08:30:41.708Z,48.39
2019-02-24T08:33:11.040Z,48.55
2019-02-24T08:35:43.201Z,48.32
2019-02-24T08:38:15.039Z,48.05
2019-02-24T08:40:47.130Z,47.94
2019-02-24T08:43:20.472Z,47.22
2019-02-24T08:45:52.601Z,47.25
2019-02-24T08:48:24.523Z,47.15
2019-02-24T08:50:56.530Z,47.19
2019-02-24T08:53:28.415Z,47.00
2019-02-24T08:56:00.660Z,46.92
2019-02-24T08:58:32.842Z,47.13
2019-02-24T09:01:05.515Z,46.72
2019-02-24T09:03:37.426Z,46.28
2019-02-24T09:06:09.521Z,46.56
2019-02-24T09:08:41.364Z,46.83
2019-02-24T09:11:13.551Z,47.22
2019-02-24T09:13:45.842Z,47.18
2019-02-24T09:16:18.191Z,47.06
2019-02-24T09:18:50.815Z,46.95
2019-02-24T09:21:23.979Z,47.33
2019-02-24T09:23:56.353Z,47.14
2019-02-24T09:26:29.199Z,47.13
2019-02-24T09:29:02.303Z,46.46
2019-02-24T09:31:35.329Z,45.74
2019-02-24T09:34:07.737Z,45.42
2019-02-24T09:36:40.916Z,45.14
2019-02-24T09:39:13.620Z,45.23
2019-02-24T09:41:46.353Z,44.90
2019-02-24T09:44:19.101Z,45.32
2019-02-24T09:46:51.902Z,45.45
2019-02-24T09:49:24.272Z,45.16
2019-02-24T09:51:56.665Z,45.38
2019-02-24T09:54:28.588Z,45.61
2019-02-24T09:57:00.777Z,45.89
2019-02-24T09:59:32.831Z,45.85
2019-02-24T10:02:05.601Z,46.37
2019-02-24T10:04:37.715Z,46.31
2019-02-24T10:07:09.781Z,45.66
2019-02-24T10:09:41.957Z,45.61
2019-02-24T10:12:14.413Z,45.56
2019-02-24T10:14:46.339Z,45.52
2019-02-24T10:17:18.443Z,46.17
2019-02-24T10:19:50.340Z,46.12
2019-02-24T10:22:23.069Z,46.58
2019-02-24T10:24:55.524Z,46.89
2019-02-24T10:27:28.160Z,47.43
2019-02-24T10:30:00.842Z,47.67
2019-02-24T10:32:33.215Z,47.11
2019-02-24T10:35:05.374Z,46.74
2019-02-24T10:37:37.637Z,46.55
2019-02-24T10:40:12.519Z,46.68
2019-02-24T10:42:45.748Z,45.99
2019-02-24T10:45:17.960Z,46.06
2019-02-24T10:47:50.337Z,45.25
2019-02-24T10:50:22.266Z,44.25
2019-02-24T10:52:54.646Z,44.39
2019-02-24T10:55:26.723Z,44.33
2019-02-24T10:57:59.060Z,44.71
2019-02-24T11:00:31.287Z,44.30
2019-02-24T11:03:03.513Z,43.45
2019-02-24T11:05:35.823Z,42.84
2019-02-24T11:08:08.261Z,42.40
2019-02-24T11:10:40.064Z,42.91
2019-02-24T11:13:12.481Z,42.75
2019-02-24T11:15:44.339Z,42.43
2019-02-24T11:18:16.256Z,42.62
2019-02-24T11:20:48.187Z,42.19
2019-02-24T11:23:20.250Z,42.64
2019-02-24T11:25:52.066Z,42.71
2019-02-24T11:28:23.954Z,42.45
2019-02-24T11:30:56.047Z,42.22
2019-02-24T11:33:28.107Z,41.91
2019-02-24T11:35:59.974Z,41.94
2019-02-24T11:38:32.135Z,41.34
2019-02-24T11:41:04.001Z,41.00
2019-02-24T11:43:36.162Z,40.59
2019-02-24T11:46:08.152Z,40.83
2019-02-24T11:48:40.315Z,40.24
2019-02-24T11:51:12.285Z,40.85
2019-02-24T11:53:45.335Z,40.73
2019-02-24T11:56:17.209Z,40.89
2019-02-24T11:58:49.400Z,41.82
2019-02-24T12:01:21.249Z,41.99
2019-02-24T12:03:53.391Z,41.76
2019-02-24T12:06:25.270Z,41.58
2019-02-24T12:09:05.049Z,41.77
2019-02-24T12:11:30.750Z,41.81
2019-02-24T12:14:02.912Z,41.96
2019-02-24T12:16:35.302Z,41.36
2019-02-24T12:19:07.751Z,41.41
2019-02-24T12:21:39.567Z,41.85
2019-02-24T12:24:11.608Z,41.86
2019-02-24T12:26:43.540Z,41.87
2019-02-24T12:29:15.462Z,42.13
2019-02-24T12:31:56.209Z,42.05
2019-02-24T12:34:21.585Z,41.40
2019-02-24T12:36:53.385Z,41.82
2019-02-24T12:39:25.680Z,41.63
2019-02-24T12:41:57.649Z,40.79
2019-02-24T12:44:29.781Z,40.37
2019-02-24T12:47:01.966Z,40.04
2019-02-24T12:49:34.178Z,39.74
2019-02-24T12:52:06.806Z,39.57
2019-02-24T12:54:39.053Z,39.38
2019-02-24T12:57:10.863Z,39.42
2019-02-24T12:59:43.370Z,39.05
2019-02-24T13:02:16.091Z,38.84
2019-02-24T13:04:48.528Z,39.05
2019-02-24T13:07:20.489Z,39.04
2019-02-24T13:09:52.500Z,39.24
2019-02-24T13:12:24.340Z,39.13
2019-02-24T13:14:56.403Z,38.92
2019-02-24T13:17:28.172Z,38.78
2019-02-24T13:20:00.346Z,38.69
2019-02-24T13:22:32.417Z,38.55
2019-02-24T13:25:04.640Z,38.83
2019-02-24T13:27:36.532Z,38.76
2019-02-24T13:30:09.241Z,38.84
2019-02-24T13:32:41.577Z,38.54
2019-02-24T13:35:14.645Z,38.22
2019-02-24T13:37:47.731Z,38.18
2019-02-24T13:40:20.633Z,37.05
2019-02-24T13:42:52.873Z,34.20
2019-02-24T13:45:26.865Z,31.90
2019-02-24T13:47:58.871Z,30.23
2019-02-24T13:50:30.964Z,29.19
2019-02-24T13:53:03.247Z,29.20
2019-02-24T13:55:35.685Z,30.76
2019-02-24T13:58:07.523Z,31.78
2019-02-24T14:00:39.804Z,27.74
2019-02-24T14:03:12.039Z,24.44
2019-02-24T14:05:44.019Z,23.90
2019-02-24T14:08:15.947Z,23.37
2019-02-24T14:10:48.181Z,22.89
2019-02-24T14:13:20.122Z,21.39
2019-02-24T14:15:52.585Z,20.94
2019-02-24T14:18:24.909Z,23.13
2019-02-24T14:20:57.217Z,23.60
2019-02-24T14:23:29.265Z,23.08
2019-02-24T14:26:01.426Z,23.23
2019-02-24T14:28:33.337Z,24.42
2019-02-24T14:31:05.563Z,24.40
2019-02-24T14:33:37.880Z,24.04
2019-02-24T14:36:11.323Z,26.96
2019-02-24T14:38:43.400Z,28.63
2019-02-24T14:41:15.385Z,30.06
2019-02-24T14:43:47.339Z,31.24
2019-02-24T14:46:19.345Z,31.70
2019-02-24T14:48:51.137Z,33.09
2019-02-24T14:51:23.266Z,34.64
2019-02-24T14:53:55.055Z,36.11
2019-02-24T14:56:27.327Z,36.58
2019-02-24T14:58:59.461Z,36.61
2019-02-24T15:01:31.882Z,35.25
2019-02-24T15:04:03.900Z,34.21
2019-02-24T15:06:36.539Z,35.49
2019-02-24T15:09:09.405Z,36.22
2019-02-24T15:11:42.278Z,35.71
2019-02-24T15:14:14.120Z,33.01
2019-02-24T15:16:46.327Z,31.12
2019-02-24T15:19:18.646Z,31.88
2019-02-24T15:21:50.843Z,33.16
2019-02-24T15:24:22.670Z,33.12
2019-02-24T15:26:54.779Z,34.26
2019-02-24T15:29:26.609Z,35.74
2019-02-24T15:31:58.604Z,37.07
2019-02-24T15:34:30.971Z,37.73
2019-02-24T15:37:03.154Z,38.81
2019-02-24T15:39:35.114Z,39.57
2019-02-24T15:42:07.490Z,40.55
2019-02-24T15:44:39.433Z,41.55
2019-02-24T15:47:11.713Z,42.13
2019-02-24T15:49:43.786Z,42.90
2019-02-24T15:52:16.439Z,43.39
2019-02-24T15:54:48.322Z,43.79
2019-02-24T15:57:20.488Z,44.12
2019-02-24T15:59:52.460Z,44.44
2019-02-24T16:02:24.772Z,45.08
2019-02-24T16:04:57.055Z,45.18
2019-02-24T16:07:29.275Z,45.30
2019-02-24T16:10:01.413Z,45.63
2019-02-24T16:12:33.792Z,46.25
2019-02-24T16:15:06.621Z,46.24
2019-02-24T16:17:39.078Z,46.10
2019-02-24T16:20:17.026Z,46.68
2019-02-24T16:22:49.995Z,46.78
2019-02-24T16:25:22.199Z,47.32
2019-02-24T16:27:54.620Z,47.45
2019-02-24T16:30:26.773Z,47.73
2019-02-24T16:33:00.046Z,48.17
2019-02-24T16:35:32.041Z,48.58
2019-02-24T16:38:04.084Z,48.64
2019-02-24T16:40:36.299Z,48.78
2019-02-24T16:43:08.877Z,48.88
2019-02-24T16:45:41.787Z,48.90
2019-02-24T16:48:13.982Z,48.93
2019-02-24T16:50:45.942Z,49.09
2019-02-24T16:53:18.157Z,49.13
2019-02-24T16:55:50.248Z,49.34
2019-02-24T16:58:23.846Z,49.50
2019-02-24T17:00:56.073Z,49.73
2019-02-24T17:03:28.381Z,49.86
2019-02-24T17:06:00.350Z,49.76
2019-02-24T17:08:32.735Z,49.93
2019-02-24T17:11:07.454Z,50.16
2019-02-24T17:13:38.591Z,50.18
2019-02-24T17:16:10.778Z,50.34
2019-02-24T17:18:43.075Z,50.27
2019-02-24T17:21:15.449Z,50.66
2019-02-24T17:23:50.138Z,50.39
2019-02-24T17:26:21.446Z,50.49
2019-02-24T17:28:54.160Z,50.57
2019-02-24T17:31:28.628Z,50.53
2019-02-24T17:34:01.498Z,50.74
2019-02-24T17:36:35.167Z,50.78
2019-02-24T17:39:10.010Z,50.84
2019-02-24T17:41:44.017Z,51.03
2019-02-24T17:44:16.568Z,51.26
2019-02-24T17:46:50.462Z,51.28
2019-02-24T17:49:22.662Z,51.42
2019-02-24T17:51:54.673Z,51.71
2019-02-24T17:54:26.965Z,51.97
2019-02-24T17:56:59.763Z,51.99
2019-02-24T17:59:40.131Z,52.32
2019-02-24T18:02:07.920Z,52.51
2019-02-24T18:04:40.786Z,52.78
2019-02-24T18:07:14.315Z,53.02
2019-02-24T18:09:47.559Z,53.36
2019-02-24T18:12:21.159Z,53.48
2019-02-24T18:14:54.581Z,53.67
2019-02-24T18:17:28.571Z,53.82
2019-02-24T18:20:03.927Z,53.92
2019-02-24T18:22:39.188Z,53.84
2019-02-24T18:25:14.406Z,54.10
2019-02-24T18:27:48.348Z,53.88
2019-02-24T18:30:26.767Z,54.02
2019-02-24T18:33:00.390Z,54.06
2019-02-24T18:35:35.011Z,54.20
2019-02-24T18:38:09.221Z,54.25
2019-02-24T18:40:43.891Z,54.59
2019-02-24T18:43:18.083Z,54.93
2019-02-24T18:45:51.792Z,54.81
2019-02-24T18:48:25.935Z,54.83
2019-02-24T18:51:00.694Z,54.89
2019-02-24T18:53:35.400Z,55.19
2019-02-24T18:56:09.906Z,55.28
2019-02-24T18:58:44.673Z,55.57
2019-02-24T19:01:19.827Z,55.60
2019-02-24T19:03:57.802Z,55.71
2019-02-24T19:06:38.941Z,55.87
2019-02-24T19:09:09.963Z,55.59
2019-02-24T19:11:44.949Z,55.37
2019-02-24T19:14:19.963Z,55.36
2019-02-24T19:16:57.135Z,55.18
2019-02-24T19:19:31.580Z,55.08
2019-02-24T19:22:07.938Z,54.61
2019-02-24T19:24:43.037Z,54.27
2019-02-24T19:27:17.610Z,54.11
2019-02-24T19:29:52.040Z,53.97
2019-02-24T19:32:27.174Z,53.94
2019-02-24T19:35:03.066Z,53.69
2019-02-24T19:37:37.382Z,53.19
2019-02-24T19:40:13.821Z,52.99
2019-02-24T19:42:50.851Z,52.99
2019-02-24T19:45:25.177Z,52.70
2019-02-24T19:47:59.306Z,52.63
2019-02-24T19:50:33.947Z,52.24
2019-02-24T19:53:09.386Z,52.19
2019-02-24T19:55:45.637Z,52.40
2019-02-24T19:58:20.364Z,52.61
2019-02-24T20:00:55.911Z,52.67
2019-02-24T20:03:30.922Z,52.34
2019-02-24T20:06:05.369Z,52.35
2019-02-24T20:08:40.357Z,52.37
2019-02-24T20:11:14.591Z,51.95
2019-02-24T20:13:49.335Z,51.97
2019-02-24T20:16:24.673Z,51.88
2019-02-24T20:18:59.162Z,51.51
2019-02-24T20:21:33.639Z,50.94
2019-02-24T20:24:08.602Z,51.07
2019-02-24T20:26:43.025Z,51.02
2019-02-24T20:29:18.395Z,50.84
2019-02-24T20:31:52.902Z,51.19
2019-02-24T20:34:28.245Z,51.27
2019-02-24T20:37:03.328Z,51.00
2019-02-24T20:39:38.308Z,50.62
2019-02-24T20:42:12.555Z,50.07
2019-02-24T20:44:47.103Z,49.62
2019-02-24T20:47:22.687Z,49.74
2019-02-24T20:49:57.669Z,49.68
2019-02-24T20:52:34.058Z,49.68
2019-02-24T20:55:09.564Z,49.79
2019-02-24T20:57:44.152Z,50.13
2019-02-24T21:00:35.317Z,49.76
2019-02-24T21:03:09.438Z,50.13
2019-02-24T21:05:44.963Z,50.26
2019-02-24T21:08:19.326Z,49.88
2019-02-24T21:10:54.222Z,49.59
2019-02-24T21:13:28.617Z,49.88
2019-02-24T21:16:03.656Z,49.92
2019-02-24T21:18:37.584Z,49.91
2019-02-24T21:21:12.221Z,49.78
2019-02-24T21:23:46.651Z,49.74
2019-02-24T21:26:21.191Z,49.76
2019-02-24T21:28:56.783Z,49.66
2019-02-24T21:31:31.841Z,49.70
2019-02-24T21:34:06.871Z,50.33
2019-02-24T21:36:42.186Z,50.23
2019-02-24T21:39:16.486Z,50.25
2019-02-24T21:41:51.332Z,50.51
2019-02-24T21:44:25.795Z,50.44
2019-02-24T21:47:00.795Z,50.45
2019-02-24T21:49:34.377Z,50.45
2019-02-24T21:52:09.306Z,50.77
2019-02-24T21:54:42.668Z,50.74
2019-02-24T21:57:16.217Z,50.78
2019-02-24T21:59:49.299Z,50.08
2019-02-24T22:02:23.391Z,49.95
2019-02-24T22:04:56.182Z,49.75
2019-02-24T22:07:28.769Z,49.40
2019-02-24T22:10:01.265Z,48.94
2019-02-24T22:12:34.901Z,49.07
2019-02-24T22:15:09.782Z,49.39
2019-02-24T22:17:42.386Z,49.50
2019-02-24T22:20:16.760Z,49.43
2019-02-24T22:22:49.193Z,49.28
2019-02-24T22:25:21.276Z,48.91
2019-02-24T22:27:54.550Z,48.88
2019-02-24T22:30:26.759Z,48.99
2019-02-24T22:32:58.664Z,49.09
2019-02-24T22:35:30.527Z,49.15
2019-02-24T22:38:02.405Z,49.14
2019-02-24T22:40:34.260Z,49.19
2019-02-24T22:43:06.408Z,49.18
2019-02-24T22:45:38.274Z,49.18
2019-02-24T22:48:10.333Z,49.19
2019-02-24T22:50:42.124Z,49.38
2019-02-24T22:53:14.259Z,49.40
2019-02-24T22:55:46.075Z,49.43
2019-02-24T22:58:17.959Z,49.74
2019-02-24T23:01:24.457Z,49.94
2019-02-24T23:04:06.381Z,50.33
2019-02-24T23:06:38.260Z,50.44
2019-02-24T23:09:19.613Z,50.58
2019-02-24T23:11:51.458Z,50.64
2019-02-24T23:14:25.041Z,50.78
2019-02-24T23:16:57.181Z,50.89
2019-02-24T23:19:29.294Z,51.23
2019-02-24T23:22:01.078Z,51.40
2019-02-24T23:24:33.044Z,51.58
2019-02-24T23:27:04.869Z,51.67
2019-02-24T23:29:36.886Z,51.68
2019-02-24T23:32:10.203Z,52.06
2019-02-24T23:34:42.423Z,52.24
2019-02-24T23:37:14.190Z,52.33
2019-02-24T23:39:46.236Z,52.44
2019-02-24T23:42:18.090Z,52.65
2019-02-24T23:44:50.014Z,52.75
2019-02-24T23:47:22.187Z,52.99
2019-02-24T23:49:54.308Z,53.06
2019-02-24T23:52:26.082Z,53.47
2019-02-24T23:54:58.020Z,53.42
2019-02-24T23:57:29.855Z,53.67
